createdAt,value
2018-08-04T00:01:05.031Z,20.85
2018-08-04T00:03:33.745Z,20.87
2018-08-04T00:06:02.381Z,20.86
2018-08-04T00:08:31.096Z,20.84
2018-08-04T00:10:59.750Z,20.73
2018-08-04T00:13:28.514Z,20.69
2018-08-04T00:15:57.203Z,20.65
2018-08-04T00:18:25.848Z,20.66
2018-08-04T00:20:55.131Z,20.66
2018-08-04T00:23:23.842Z,20.63
2018-08-04T00:25:52.495Z,20.64
2018-08-04T00:28:21.158Z,20.63
2018-08-04T00:30:49.851Z,20.55
2018-08-04T00:33:18.522Z,20.52
2018-08-04T00:35:47.140Z,20.53
2018-08-04T00:38:15.756Z,20.51
2018-08-04T00:40:44.422Z,20.52
2018-08-04T00:43:13.067Z,20.54
2018-08-04T00:45:41.711Z,20.54
2018-08-04T00:48:10.332Z,20.48
2018-08-04T00:50:39.085Z,20.44
2018-08-04T00:53:07.674Z,20.40
2018-08-04T00:55:36.306Z,20.37
2018-08-04T00:58:04.914Z,20.32
2018-08-04T01:00:33.598Z,20.21
2018-08-04T01:03:02.221Z,20.06
2018-08-04T01:05:30.871Z,19.96
2018-08-04T01:07:59.543Z,19.91
2018-08-04T01:10:28.168Z,19.81
2018-08-04T01:12:56.764Z,19.78
2018-08-04T01:15:25.383Z,19.71
2018-08-04T01:17:54.052Z,19.68
2018-08-04T01:20:22.670Z,19.66
2018-08-04T01:22:51.326Z,19.62
2018-08-04T01:25:19.972Z,19.64
2018-08-04T01:27:48.599Z,19.68
2018-08-04T01:30:17.294Z,19.68
2018-08-04T01:32:45.896Z,19.65
2018-08-04T01:35:14.462Z,19.57
2018-08-04T01:37:43.078Z,19.50
2018-08-04T01:40:11.723Z,19.44
2018-08-04T01:42:40.354Z,19.40
2018-08-04T01:45:08.960Z,19.35
2018-08-04T01:47:37.586Z,19.30
2018-08-04T01:50:06.576Z,19.29
2018-08-04T01:52:35.246Z,19.20
2018-08-04T01:55:03.888Z,19.16
2018-08-04T01:57:32.511Z,19.15
2018-08-04T02:00:01.120Z,19.08
2018-08-04T02:02:29.734Z,19.02
2018-08-04T02:04:58.423Z,18.94
2018-08-04T02:07:27.162Z,18.85
2018-08-04T02:09:55.799Z,18.83
2018-08-04T02:12:24.487Z,18.85
2018-08-04T02:14:53.109Z,18.82
2018-08-04T02:17:21.779Z,18.84
2018-08-04T02:19:50.440Z,18.81
2018-08-04T02:22:19.062Z,18.86
2018-08-04T02:24:47.673Z,18.87
2018-08-04T02:27:16.334Z,18.83
2018-08-04T02:29:45.031Z,18.75
2018-08-04T02:32:13.637Z,18.81
2018-08-04T02:34:42.252Z,18.83
2018-08-04T02:37:10.882Z,18.82
2018-08-04T02:39:39.487Z,18.79
2018-08-04T02:42:08.154Z,18.78
2018-08-04T02:44:36.797Z,18.81
2018-08-04T02:47:05.423Z,18.77
2018-08-04T02:49:34.056Z,18.57
2018-08-04T02:52:02.748Z,18.55
2018-08-04T02:54:31.440Z,18.46
2018-08-04T02:57:00.073Z,18.40
2018-08-04T02:59:28.700Z,18.39
2018-08-04T03:01:57.304Z,18.32
2018-08-04T03:04:25.933Z,18.29
2018-08-04T03:06:54.530Z,18.21
2018-08-04T03:09:23.130Z,18.19
2018-08-04T03:11:51.765Z,18.18
2018-08-04T03:14:20.372Z,18.07
2018-08-04T03:16:48.999Z,18.07
2018-08-04T03:19:17.675Z,18.04
2018-08-04T03:21:46.316Z,18.04
2018-08-04T03:24:14.962Z,18.09
2018-08-04T03:26:43.627Z,17.83
2018-08-04T03:29:12.263Z,17.80
2018-08-04T03:31:40.938Z,17.99
2018-08-04T03:34:09.529Z,18.10
2018-08-04T03:36:38.224Z,18.19
2018-08-04T03:39:09.762Z,18.22
2018-08-04T03:41:38.472Z,18.28
2018-08-04T03:44:07.264Z,18.33
2018-08-04T03:46:36.013Z,18.27
2018-08-04T03:49:04.667Z,18.32
2018-08-04T03:51:33.287Z,18.37
2018-08-04T03:54:02.134Z,18.37
2018-08-04T03:56:30.735Z,18.43
2018-08-04T03:58:59.457Z,18.25
2018-08-04T04:01:28.295Z,18.21
2018-08-04T04:03:56.953Z,18.19
2018-08-04T04:06:25.669Z,18.28
2018-08-04T04:08:54.330Z,18.30
2018-08-04T04:11:22.948Z,18.33
2018-08-04T04:13:51.841Z,18.32
2018-08-04T04:16:20.438Z,18.41
2018-08-04T04:18:49.131Z,18.43
2018-08-04T04:21:17.820Z,18.51
2018-08-04T04:23:46.550Z,18.62
2018-08-04T04:26:15.203Z,18.68
2018-08-04T04:28:43.814Z,18.74
2018-08-04T04:31:12.467Z,18.78
2018-08-04T04:33:41.087Z,18.88
2018-08-04T04:36:09.720Z,18.94
2018-08-04T04:38:38.327Z,18.98
2018-08-04T04:41:07.291Z,19.03
2018-08-04T04:43:35.897Z,19.05
2018-08-04T04:46:05.118Z,19.16
2018-08-04T04:48:33.798Z,19.21
2018-08-04T04:51:02.412Z,19.30
2018-08-04T04:53:31.105Z,19.28
2018-08-04T04:55:59.775Z,19.33
2018-08-04T04:58:28.386Z,19.42
2018-08-04T05:00:56.987Z,19.48
2018-08-04T05:03:25.666Z,19.47
2018-08-04T05:05:54.286Z,19.49
2018-08-04T05:08:22.944Z,19.48
2018-08-04T05:10:51.549Z,19.43
2018-08-04T05:13:20.298Z,19.47
2018-08-04T05:15:48.915Z,19.52
2018-08-04T05:18:17.559Z,19.60
2018-08-04T05:20:46.211Z,19.62
2018-08-04T05:23:14.819Z,19.68
2018-08-04T05:25:43.571Z,19.72
2018-08-04T05:28:12.233Z,19.80
2018-08-04T05:30:40.829Z,19.88
2018-08-04T05:33:09.450Z,19.86
2018-08-04T05:35:38.196Z,19.86
2018-08-04T05:38:06.823Z,19.95
2018-08-04T05:40:35.529Z,20.03
2018-08-04T05:43:04.163Z,20.07
2018-08-04T05:45:32.926Z,20.15
2018-08-04T05:48:01.571Z,20.28
2018-08-04T05:50:31.074Z,20.27
2018-08-04T05:52:59.801Z,20.19
2018-08-04T05:55:28.505Z,20.23
2018-08-04T05:57:57.206Z,20.33
2018-08-04T06:00:25.878Z,20.39
2018-08-04T06:02:54.491Z,20.54
2018-08-04T06:05:23.452Z,20.67
2018-08-04T06:07:52.079Z,20.75
2018-08-04T06:10:20.759Z,20.87
2018-08-04T06:12:49.491Z,21.02
2018-08-04T06:15:18.203Z,21.07
2018-08-04T06:17:47.405Z,21.09
2018-08-04T06:20:16.121Z,21.18
2018-08-04T06:22:44.750Z,21.25
2018-08-04T06:25:13.434Z,21.35
2018-08-04T06:27:42.142Z,21.40
2018-08-04T06:30:11.944Z,21.49
2018-08-04T06:32:41.306Z,21.64
2018-08-04T06:35:10.004Z,21.76
2018-08-04T06:37:38.768Z,21.78
2018-08-04T06:40:07.949Z,21.90
2018-08-04T06:42:36.640Z,21.91
2018-08-04T06:45:06.097Z,21.94
2018-08-04T06:47:34.846Z,22.04
2018-08-04T06:50:03.522Z,22.07
2018-08-04T06:52:32.292Z,22.09
2018-08-04T06:55:00.963Z,22.19
2018-08-04T06:59:57.148Z,22.35
2018-08-04T07:02:25.800Z,22.36
2018-08-04T07:04:54.438Z,22.41
2018-08-04T07:07:23.076Z,22.53
2018-08-04T07:09:51.719Z,22.46
2018-08-04T07:12:20.369Z,22.58
2018-08-04T07:14:49.255Z,22.65
2018-08-04T07:17:17.890Z,22.80
2018-08-04T07:19:46.560Z,22.81
2018-08-04T07:22:15.224Z,22.95
2018-08-04T07:24:43.847Z,23.12
2018-08-04T07:27:12.471Z,23.30
2018-08-04T07:29:41.284Z,23.30
2018-08-04T07:32:09.920Z,23.46
2018-08-04T07:34:38.586Z,23.51
2018-08-04T07:37:07.635Z,23.44
2018-08-04T07:39:36.228Z,23.64
2018-08-04T07:42:05.079Z,23.72
2018-08-04T07:44:33.682Z,23.76
2018-08-04T07:47:02.305Z,23.83
2018-08-04T07:49:31.072Z,23.90
2018-08-04T07:51:59.720Z,23.97
2018-08-04T07:54:28.906Z,24.08
2018-08-04T07:56:57.527Z,24.08
2018-08-04T07:59:26.257Z,24.21
2018-08-04T08:01:54.916Z,24.37
2018-08-04T08:04:23.547Z,24.47
2018-08-04T08:06:52.175Z,24.45
2018-08-04T08:09:20.783Z,24.53
2018-08-04T08:11:49.454Z,24.64
2018-08-04T08:14:18.107Z,24.77
2018-08-04T08:16:46.777Z,24.93
2018-08-04T08:19:15.522Z,24.93
2018-08-04T08:21:45.279Z,25.07
2018-08-04T08:24:14.037Z,25.05
2018-08-04T08:26:42.632Z,25.19
2018-08-04T08:29:11.253Z,25.34
2018-08-04T08:31:39.925Z,25.37
2018-08-04T08:34:08.623Z,25.39
2018-08-04T08:36:37.257Z,25.45
2018-08-04T08:39:07.842Z,25.42
2018-08-04T08:41:36.642Z,25.41
2018-08-04T08:44:05.323Z,25.45
2018-08-04T08:46:34.182Z,25.37
2018-08-04T08:49:02.836Z,25.46
2018-08-04T08:51:31.479Z,25.57
2018-08-04T08:54:00.591Z,25.82
2018-08-04T08:56:30.763Z,26.00
2018-08-04T08:58:59.446Z,26.06
2018-08-04T09:01:28.244Z,26.29
2018-08-04T09:03:56.975Z,26.36
2018-08-04T09:06:25.679Z,26.36
2018-08-04T09:08:54.290Z,26.44
2018-08-04T09:11:22.980Z,26.55
2018-08-04T09:13:51.671Z,26.69
2018-08-04T09:16:20.328Z,26.90
2018-08-04T09:18:49.795Z,26.80
2018-08-04T09:21:18.533Z,26.76
2018-08-04T09:23:47.157Z,26.67
2018-08-04T09:26:15.810Z,26.45
2018-08-04T09:28:44.483Z,26.70
2018-08-04T09:31:13.082Z,26.91
2018-08-04T09:33:41.695Z,27.08
2018-08-04T09:36:10.411Z,27.01
2018-08-04T09:38:39.195Z,26.87
2018-08-04T09:41:07.864Z,27.09
2018-08-04T09:43:36.539Z,27.33
2018-08-04T09:46:06.168Z,27.35
2018-08-04T09:48:34.901Z,27.37
2018-08-04T09:51:04.611Z,27.54
2018-08-04T09:53:33.313Z,27.51
2018-08-04T09:56:01.963Z,27.66
2018-08-04T09:58:30.699Z,27.73
2018-08-04T10:01:04.627Z,27.73
2018-08-04T10:03:33.255Z,27.99
2018-08-04T10:06:01.972Z,28.06
2018-08-04T10:08:30.598Z,28.07
2018-08-04T10:10:59.298Z,28.10
2018-08-04T10:13:27.973Z,28.03
2018-08-04T10:15:56.602Z,27.92
2018-08-04T10:18:25.232Z,27.97
2018-08-04T10:20:54.229Z,28.10
2018-08-04T10:23:22.899Z,27.96
2018-08-04T10:25:51.562Z,28.07
2018-08-04T10:28:20.285Z,27.96
2018-08-04T10:30:49.014Z,28.15
2018-08-04T10:33:17.703Z,28.38
2018-08-04T10:35:46.349Z,28.62
2018-08-04T10:38:15.052Z,28.76
2018-08-04T10:40:43.799Z,28.89
2018-08-04T10:43:12.453Z,29.10
2018-08-04T10:45:41.094Z,29.15
2018-08-04T10:48:09.779Z,29.36
2018-08-04T10:50:38.368Z,29.55
2018-08-04T10:53:07.120Z,29.68
2018-08-04T10:55:36.006Z,30.19
2018-08-04T10:58:04.742Z,30.53
2018-08-04T11:00:33.439Z,31.09
2018-08-04T11:03:02.076Z,31.16
2018-08-04T11:05:30.702Z,31.66
2018-08-04T11:07:59.404Z,31.98
2018-08-04T11:10:28.101Z,32.19
2018-08-04T11:12:56.785Z,32.31
2018-08-04T11:15:25.402Z,32.46
2018-08-04T11:17:54.081Z,32.57
2018-08-04T11:20:22.746Z,32.41
2018-08-04T11:22:51.390Z,31.52
2018-08-04T11:25:20.002Z,30.97
2018-08-04T11:27:48.658Z,30.90
2018-08-04T11:30:17.299Z,31.39
2018-08-04T11:32:45.911Z,31.01
2018-08-04T11:35:14.548Z,30.58
2018-08-04T11:37:43.189Z,30.41
2018-08-04T11:40:11.851Z,29.88
2018-08-04T11:42:40.525Z,30.56
2018-08-04T11:45:09.166Z,30.93
2018-08-04T11:47:37.838Z,31.04
2018-08-04T11:50:06.707Z,31.71
2018-08-04T11:52:35.345Z,32.26
2018-08-04T11:55:04.039Z,32.67
2018-08-04T11:57:32.703Z,32.64
2018-08-04T12:00:01.386Z,32.04
2018-08-04T12:02:30.082Z,31.97
2018-08-04T12:04:58.712Z,32.10
2018-08-04T12:07:27.347Z,31.67
2018-08-04T12:09:56.054Z,32.36
2018-08-04T12:12:24.673Z,32.01
2018-08-04T12:14:53.275Z,31.66
2018-08-04T12:17:21.922Z,32.01
2018-08-04T12:19:50.525Z,32.28
2018-08-04T12:22:19.182Z,32.74
2018-08-04T12:24:47.822Z,32.87
2018-08-04T12:27:16.497Z,32.53
2018-08-04T12:29:45.846Z,31.55
2018-08-04T12:32:14.471Z,30.57
2018-08-04T12:34:43.082Z,30.24
2018-08-04T12:37:11.690Z,29.88
2018-08-04T12:39:40.410Z,29.34
2018-08-04T12:42:09.103Z,28.99
2018-08-04T12:44:37.746Z,28.78
2018-08-04T12:47:06.349Z,28.64
2018-08-04T12:49:34.964Z,28.67
2018-08-04T12:52:03.700Z,29.33
2018-08-04T12:54:32.420Z,30.32
2018-08-04T12:57:00.937Z,31.21
2018-08-04T12:59:29.857Z,31.87
2018-08-04T13:01:58.551Z,32.43
2018-08-04T13:04:27.165Z,33.00
2018-08-04T13:06:55.807Z,33.04
2018-08-04T13:09:24.448Z,32.93
2018-08-04T13:11:53.178Z,32.19
2018-08-04T13:14:21.821Z,31.44
2018-08-04T13:16:50.475Z,30.86
2018-08-04T13:19:19.085Z,30.19
2018-08-04T13:21:47.787Z,30.17
2018-08-04T13:24:16.488Z,30.42
2018-08-04T13:26:45.192Z,30.65
2018-08-04T13:29:14.686Z,30.54
2018-08-04T13:31:43.371Z,30.87
2018-08-04T13:34:12.002Z,30.82
2018-08-04T13:36:40.610Z,30.97
2018-08-04T13:39:10.357Z,31.47
2018-08-04T13:41:39.661Z,31.85
2018-08-04T13:44:08.631Z,31.68
2018-08-04T13:46:37.355Z,32.08
2018-08-04T13:49:05.990Z,32.08
2018-08-04T13:51:34.651Z,32.00
2018-08-04T13:54:03.443Z,31.96
2018-08-04T13:56:32.134Z,32.07
2018-08-04T13:59:00.854Z,32.18
2018-08-04T14:01:29.602Z,32.50
2018-08-04T14:03:58.288Z,31.99
2018-08-04T14:06:26.953Z,31.42
2018-08-04T14:08:55.628Z,30.71
2018-08-04T14:11:24.362Z,30.20
2018-08-04T14:13:53.080Z,30.44
2018-08-04T14:16:22.226Z,31.07
2018-08-04T14:18:50.960Z,31.71
2018-08-04T14:21:20.246Z,32.24
2018-08-04T14:23:48.895Z,32.26
2018-08-04T14:26:17.527Z,31.97
2018-08-04T14:28:46.202Z,31.25
2018-08-04T14:31:14.792Z,31.00
2018-08-04T14:33:43.512Z,30.70
2018-08-04T14:36:12.150Z,30.50
2018-08-04T14:38:40.747Z,30.11
2018-08-04T14:41:09.453Z,30.40
2018-08-04T14:43:38.360Z,30.98
2018-08-04T14:46:07.419Z,31.79
2018-08-04T14:48:36.030Z,32.25
2018-08-04T14:51:04.736Z,32.61
2018-08-04T14:53:33.338Z,32.01
2018-08-04T14:56:01.920Z,31.67
2018-08-04T14:58:30.563Z,30.94
2018-08-04T15:00:59.252Z,30.75
2018-08-04T15:03:27.907Z,30.19
2018-08-04T15:05:56.548Z,29.76
2018-08-04T15:08:25.119Z,29.21
2018-08-04T15:10:53.749Z,29.01
2018-08-04T15:13:22.359Z,28.69
2018-08-04T15:15:51.039Z,28.58
2018-08-04T15:18:19.694Z,28.38
2018-08-04T15:20:48.378Z,28.13
2018-08-04T15:23:17.005Z,27.89
2018-08-04T15:25:45.668Z,27.85
2018-08-04T15:28:14.316Z,27.81
2018-08-04T15:30:42.971Z,27.68
2018-08-04T15:33:11.685Z,27.54
2018-08-04T15:35:40.352Z,27.88
2018-08-04T15:38:08.986Z,28.48
2018-08-04T15:40:37.622Z,28.98
2018-08-04T15:43:06.411Z,28.93
2018-08-04T15:45:35.052Z,28.72
2018-08-04T15:48:03.755Z,28.63
2018-08-04T15:50:32.410Z,28.67
2018-08-04T15:53:01.077Z,28.67
2018-08-04T15:55:29.651Z,29.10
2018-08-04T15:57:58.331Z,29.46
2018-08-04T16:00:26.972Z,29.72
2018-08-04T16:02:55.671Z,30.03
2018-08-04T16:05:24.345Z,29.88
2018-08-04T16:07:53.154Z,30.18
2018-08-04T16:10:21.819Z,30.13
2018-08-04T16:12:50.657Z,29.84
2018-08-04T16:15:19.284Z,29.17
2018-08-04T16:17:48.295Z,28.98
2018-08-04T16:20:17.530Z,28.74
2018-08-04T16:22:46.283Z,28.70
2018-08-04T16:25:15.366Z,28.92
2018-08-04T16:27:44.105Z,29.20
2018-08-04T16:30:12.763Z,29.43
2018-08-04T16:32:41.787Z,29.54
2018-08-04T16:35:10.750Z,29.78
2018-08-04T16:37:40.234Z,29.68
2018-08-04T16:40:08.883Z,29.73
2018-08-04T16:42:37.543Z,29.57
2018-08-04T16:45:06.295Z,29.70
2018-08-04T16:47:34.990Z,29.61
2018-08-04T16:50:03.768Z,29.51
2018-08-04T16:52:32.450Z,29.66
2018-08-04T16:55:01.157Z,29.37
2018-08-04T16:57:29.812Z,29.33
2018-08-04T16:59:58.523Z,29.31
2018-08-04T17:02:28.814Z,29.15
2018-08-04T17:04:58.457Z,28.80
2018-08-04T17:07:27.266Z,28.83
2018-08-04T17:09:55.970Z,28.80
2018-08-04T17:12:24.772Z,28.60
2018-08-04T17:14:53.382Z,28.45
2018-08-04T17:17:22.037Z,28.36
2018-08-04T17:19:50.710Z,28.06
2018-08-04T17:22:20.449Z,27.82
2018-08-04T17:24:49.093Z,27.84
2018-08-04T17:27:17.741Z,27.54
2018-08-04T17:29:46.538Z,27.42
2018-08-04T17:32:15.570Z,27.17
2018-08-04T17:34:44.208Z,27.13
2018-08-04T17:37:13.009Z,27.01
2018-08-04T17:39:41.717Z,26.76
2018-08-04T17:42:10.350Z,26.57
2018-08-04T17:44:38.966Z,26.38
2018-08-04T17:47:07.690Z,26.13
2018-08-04T17:49:36.797Z,26.10
2018-08-04T17:52:05.894Z,25.87
2018-08-04T17:54:34.704Z,25.80
2018-08-04T17:57:03.525Z,25.73
2018-08-04T17:59:32.131Z,25.65
2018-08-04T18:02:01.103Z,25.62
2018-08-04T18:04:29.718Z,25.50
2018-08-04T18:06:58.560Z,25.48
2018-08-04T18:09:27.246Z,25.00
2018-08-04T18:11:56.751Z,24.67
2018-08-04T18:14:26.432Z,24.77
2018-08-04T18:16:55.536Z,24.72
2018-08-04T18:19:24.199Z,24.43
2018-08-04T18:21:52.931Z,24.20
2018-08-04T18:24:28.645Z,24.18
2018-08-04T18:26:57.309Z,24.18
2018-08-04T18:29:26.180Z,24.15
2018-08-04T18:31:54.895Z,24.15
2018-08-04T18:34:23.500Z,23.96
2018-08-04T18:36:52.181Z,24.06
2018-08-04T18:39:20.841Z,24.08
2018-08-04T18:41:49.625Z,24.01
2018-08-04T18:44:18.208Z,23.71
2018-08-04T18:46:46.897Z,23.42
2018-08-04T18:49:15.750Z,23.61
2018-08-04T18:51:44.440Z,23.70
2018-08-04T18:54:13.083Z,23.72
2018-08-04T18:56:41.745Z,23.69
2018-08-04T18:59:10.366Z,23.69
2018-08-04T19:01:39.120Z,23.70
2018-08-04T19:04:07.858Z,23.70
2018-08-04T19:06:36.541Z,23.67
2018-08-04T19:09:07.975Z,23.69
2018-08-04T19:11:36.678Z,23.71
2018-08-04T19:14:05.414Z,23.70
2018-08-04T19:16:34.042Z,23.58
2018-08-04T19:19:02.813Z,23.60
2018-08-04T19:21:31.828Z,23.48
2018-08-04T19:24:00.520Z,23.08
2018-08-04T19:26:29.860Z,22.96
2018-08-04T19:28:58.888Z,23.06
2018-08-04T19:31:27.546Z,22.95
2018-08-04T19:33:56.231Z,22.63
2018-08-04T19:36:25.058Z,22.85
2018-08-04T19:38:53.687Z,22.86
2018-08-04T19:41:22.441Z,22.82
2018-08-04T19:43:51.222Z,22.69
2018-08-04T19:46:20.818Z,22.63
2018-08-04T19:48:49.423Z,22.61
2018-08-04T19:51:18.027Z,22.73
2018-08-04T19:53:46.671Z,22.74
2018-08-04T19:56:15.300Z,22.69
2018-08-04T19:58:43.914Z,22.58
2018-08-04T20:01:12.583Z,22.58
2018-08-04T20:03:41.190Z,22.58
2018-08-04T20:06:09.860Z,22.59
2018-08-04T20:08:38.564Z,22.38
2018-08-04T20:11:07.232Z,22.33
2018-08-04T20:13:36.019Z,22.36
2018-08-04T20:16:04.673Z,22.38
2018-08-04T20:18:33.319Z,22.35
2018-08-04T20:21:01.961Z,22.34
2018-08-04T20:23:30.653Z,22.31
2018-08-04T20:25:59.298Z,22.19
2018-08-04T20:28:27.900Z,22.06
2018-08-04T20:30:56.531Z,22.07
2018-08-04T20:33:25.180Z,22.16
2018-08-04T20:35:53.871Z,22.14
2018-08-04T20:38:22.548Z,22.16
2018-08-04T20:40:51.255Z,22.08
2018-08-04T20:43:19.935Z,22.14
2018-08-04T20:45:48.663Z,22.13
2018-08-04T20:48:17.277Z,22.20
2018-08-04T20:50:45.953Z,22.27
2018-08-04T20:53:14.616Z,22.23
2018-08-04T20:55:43.246Z,22.19
2018-08-04T20:58:11.964Z,22.10
2018-08-04T21:00:41.863Z,22.05
2018-08-04T21:03:12.278Z,21.94
2018-08-04T21:05:41.107Z,21.92
2018-08-04T21:08:09.763Z,21.87
2018-08-04T21:10:38.446Z,21.77
2018-08-04T21:13:07.070Z,21.83
2018-08-04T21:15:35.772Z,21.84
2018-08-04T21:18:04.468Z,21.81
2018-08-04T21:20:33.123Z,21.84
2018-08-04T21:23:01.782Z,21.86
2018-08-04T21:25:30.496Z,21.86
2018-08-04T21:27:59.147Z,21.89
2018-08-04T21:30:27.793Z,21.96
2018-08-04T21:32:56.418Z,21.93
2018-08-04T21:35:25.170Z,21.84
2018-08-04T21:37:53.830Z,21.75
2018-08-04T21:40:22.497Z,21.61
2018-08-04T21:42:51.116Z,21.57
2018-08-04T21:45:19.765Z,21.51
2018-08-04T21:47:48.410Z,21.47
2018-08-04T21:50:17.026Z,21.48
2018-08-04T21:52:45.642Z,21.48
2018-08-04T21:55:14.375Z,21.53
2018-08-04T21:57:42.990Z,21.54
2018-08-04T22:00:13.440Z,21.58
2018-08-04T22:02:56.080Z,21.61
2018-08-04T22:05:24.979Z,21.60
2018-08-04T22:08:05.157Z,21.59
2018-08-04T22:10:33.857Z,21.55
2018-08-04T22:13:02.771Z,21.54
2018-08-04T22:15:31.730Z,21.50
2018-08-04T22:18:00.373Z,21.47
2018-08-04T22:20:29.522Z,21.46
2018-08-04T22:22:58.226Z,21.42
2018-08-04T22:25:28.191Z,21.36
2018-08-04T22:27:57.265Z,21.32
2018-08-04T22:30:26.335Z,21.25
2018-08-04T22:32:55.184Z,21.18
2018-08-04T22:35:23.941Z,21.10
2018-08-04T22:37:52.589Z,20.95
2018-08-04T22:40:22.015Z,20.94
2018-08-04T22:42:50.689Z,20.90
2018-08-04T22:45:58.904Z,20.92
2018-08-04T22:48:27.529Z,20.85
2018-08-04T22:50:56.279Z,20.79
2018-08-04T22:53:24.928Z,20.69
2018-08-04T22:55:53.635Z,20.65
2018-08-04T22:58:22.234Z,20.65
2018-08-04T23:00:50.921Z,20.60
2018-08-04T23:03:19.635Z,20.45
2018-08-04T23:05:48.331Z,20.42
2018-08-04T23:08:17.014Z,20.42
2018-08-04T23:10:46.053Z,20.36
2018-08-04T23:13:15.309Z,20.33
2018-08-04T23:15:44.137Z,20.26
2018-08-04T23:18:12.926Z,20.19
2018-08-04T23:20:41.720Z,20.21
2018-08-04T23:23:12.748Z,20.14
2018-08-04T23:25:41.458Z,20.09
2018-08-04T23:28:10.434Z,19.96
2018-08-04T23:30:39.070Z,19.90
2018-08-04T23:33:07.697Z,19.76
2018-08-04T23:35:36.347Z,19.70
2018-08-04T23:38:05.054Z,19.64
2018-08-04T23:40:33.676Z,19.59
2018-08-04T23:43:02.449Z,19.49
2018-08-04T23:45:31.098Z,19.43
2018-08-04T23:47:59.763Z,19.36
2018-08-04T23:50:28.417Z,19.37
2018-08-04T23:52:57.065Z,19.26
2018-08-04T23:55:25.730Z,19.29
2018-08-04T23:57:54.330Z,19.22
